Time;durP1;ratioP1;P1;durP2;ratioP2;P2;SDS_P1;SDS_P2;PMS_P1;PMS_P2;Temp;Humidity;BMP_temperature;BMP_pressure;BME280_temperature;BME280_humidity;BME280_pressure;Samples;Min_cycle;Max_cycle;Signal;HPM_P1;HPM_P2
2022/11/22 00:02:19;;;;;;;31.40;15.38;;;4.10;99.90;;;;;;5049010;28;20514;-62
2022/11/22 00:04:44;;;;;;;32.78;15.10;;;4.10;99.90;;;;;;5043379;28;21078;-63
2022/11/22 00:07:10;;;;;;;31.52;14.98;;;4.10;99.90;;;;;;5039903;28;20456;-63
2022/11/22 00:09:35;;;;;;;31.00;15.43;;;4.10;99.90;;;;;;5051571;28;20380;-64
2022/11/22 00:12:01;;;;;;;29.40;14.57;;;4.10;99.90;;;;;;5051838;28;20410;-63
2022/11/22 00:14:26;;;;;;;30.73;15.27;;;4.10;99.90;;;;;;5044998;28;20048;-63
2022/11/22 00:16:52;;;;;;;30.23;15.18;;;4.10;99.90;;;;;;5027213;28;20052;-63
2022/11/22 00:19:17;;;;;;;29.42;14.93;;;4.10;99.90;;;;;;5051573;28;20043;-64
2022/11/22 00:21:43;;;;;;;30.00;15.35;;;4.10;99.90;;;;;;5045234;28;20037;-63
2022/11/22 00:24:11;;;;;;;29.33;14.30;;;4.10;99.90;;;;;;5040571;28;20049;-64
2022/11/22 00:26:36;;;;;;;30.77;15.45;;;4.10;99.90;;;;;;5052060;28;20073;-63
2022/11/22 00:29:02;;;;;;;31.05;14.80;;;4.10;99.90;;;;;;5051962;28;20080;-64
2022/11/22 00:31:28;;;;;;;29.52;14.27;;;4.10;99.90;;;;;;5046905;28;20079;-64
2022/11/22 00:33:53;;;;;;;27.52;13.45;;;4.10;99.90;;;;;;5051020;28;20049;-63
2022/11/22 00:36:19;;;;;;;27.27;14.52;;;4.10;99.90;;;;;;5051487;28;20045;-63
2022/11/22 00:38:44;;;;;;;31.33;14.52;;;4.10;99.90;;;;;;5043625;28;20024;-63
2022/11/22 00:41:10;;;;;;;29.42;14.68;;;4.10;99.90;;;;;;5043427;28;20082;-62
2022/11/22 00:43:35;;;;;;;31.95;14.82;;;4.20;99.90;;;;;;5059815;28;20123;-63
2022/11/22 00:46:01;;;;;;;31.30;15.60;;;4.20;99.90;;;;;;5051583;28;20037;-63
2022/11/22 00:48:27;;;;;;;29.13;15.02;;;4.20;99.90;;;;;;5044880;28;20051;-63
2022/11/22 00:50:54;;;;;;;27.80;14.50;;;4.20;99.90;;;;;;5039064;28;20041;-63
2022/11/22 00:53:20;;;;;;;30.48;14.80;;;4.20;99.90;;;;;;5050156;28;20119;-62
2022/11/22 00:55:46;;;;;;;31.05;15.18;;;4.30;99.90;;;;;;5041243;28;20129;-63
2022/11/22 00:58:12;;;;;;;28.98;15.52;;;4.30;99.90;;;;;;5042266;28;20044;-63
2022/11/22 01:00:37;;;;;;;33.53;14.48;;;4.30;99.90;;;;;;5051234;28;20090;-66
2022/11/22 01:03:03;;;;;;;31.50;14.95;;;4.30;99.90;;;;;;5051402;28;20159;-64
2022/11/22 01:05:28;;;;;;;29.10;14.75;;;4.30;99.90;;;;;;5047510;28;20041;-63
2022/11/22 01:07:54;;;;;;;36.60;15.82;;;4.30;99.90;;;;;;5056151;28;20127;-63
2022/11/22 01:10:20;;;;;;;31.50;15.70;;;4.30;99.90;;;;;;5054130;28;20040;-63
2022/11/22 01:12:45;;;;;;;30.27;15.70;;;4.40;99.90;;;;;;5039959;28;20074;-63
2022/11/22 01:15:11;;;;;;;36.33;16.40;;;4.30;99.90;;;;;;5047285;28;20438;-64
2022/11/22 01:17:37;;;;;;;30.45;14.52;;;4.30;99.90;;;;;;5051185;28;20123;-63
2022/11/22 01:20:03;;;;;;;29.90;14.70;;;4.40;99.90;;;;;;5044631;28;20033;-62
2022/11/22 01:22:29;;;;;;;30.40;15.15;;;4.40;99.90;;;;;;5045864;28;20041;-62
2022/11/22 01:24:54;;;;;;;32.33;15.50;;;4.40;99.90;;;;;;5051198;28;20136;-63
2022/11/22 01:27:20;;;;;;;33.55;15.88;;;4.40;99.90;;;;;;5052345;28;20515;-63
2022/11/22 01:29:45;;;;;;;29.98;14.45;;;4.40;99.90;;;;;;5049547;28;20041;-64
2022/11/22 01:32:11;;;;;;;32.15;15.13;;;4.40;99.90;;;;;;5051011;28;20132;-63
2022/11/22 01:34:36;;;;;;;28.25;14.55;;;4.40;99.90;;;;;;5074782;28;20040;-62
2022/11/22 01:37:02;;;;;;;31.88;14.73;;;4.40;99.90;;;;;;5052509;28;20132;-63
2022/11/22 01:39:28;;;;;;;32.28;16.05;;;4.50;99.90;;;;;;5051491;28;20048;-64
2022/11/22 01:41:53;;;;;;;28.50;14.80;;;4.50;99.90;;;;;;5068446;28;20041;-63
2022/11/22 01:44:25;;;;;;;32.80;14.23;;;4.50;99.90;;;;;;5073288;28;20041;-64
2022/11/22 01:47:12;;;;;;;31.88;14.38;;;4.50;99.90;;;;;;5043268;28;20045;-63
2022/11/22 01:49:52;;;;;;;31.58;15.43;;;4.50;99.90;;;;;;5054309;28;20052;-63
2022/11/22 01:52:20;;;;;;;30.13;14.80;;;4.50;99.90;;;;;;5054788;28;20116;-62
2022/11/22 01:54:54;;;;;;;30.15;14.52;;;4.50;99.90;;;;;;5037456;28;20037;-62
2022/11/22 01:57:24;;;;;;;29.95;14.48;;;4.50;99.90;;;;;;5051546;28;20045;-63
2022/11/22 01:59:56;;;;;;;28.70;14.68;;;4.60;99.90;;;;;;5054592;28;20041;-63
2022/11/22 02:02:22;;;;;;;33.38;15.20;;;4.60;99.90;;;;;;5047907;28;20407;-63
2022/11/22 02:04:51;;;;;;;32.47;14.55;;;4.60;99.90;;;;;;5054180;28;20555;-63
2022/11/22 02:07:21;;;;;;;30.83;15.07;;;4.60;99.90;;;;;;5050220;28;20045;-63
2022/11/22 02:09:48;;;;;;;30.95;15.25;;;4.60;99.90;;;;;;5054549;28;20488;-63
2022/11/22 02:12:15;;;;;;;36.85;14.88;;;4.60;99.90;;;;;;5047929;28;20041;-64
2022/11/22 02:14:42;;;;;;;31.75;14.63;;;4.70;99.90;;;;;;5058300;28;20040;-63
2022/11/22 02:17:07;;;;;;;31.55;14.27;;;4.70;99.90;;;;;;5074365;28;20383;-63
2022/11/22 02:19:43;;;;;;;29.40;14.95;;;4.70;99.90;;;;;;5049637;28;20087;-63
2022/11/22 02:22:31;;;;;;;32.53;13.68;;;4.70;99.90;;;;;;5044732;28;20155;-63
2022/11/22 02:25:28;;;;;;;32.33;14.23;;;4.70;99.90;;;;;;5018766;28;20057;-64
2022/11/22 02:27:54;;;;;;;29.05;13.82;;;4.70;99.90;;;;;;5043283;28;20091;-63
2022/11/22 02:30:20;;;;;;;31.63;14.48;;;4.80;99.90;;;;;;5045398;28;20049;-63
2022/11/22 02:32:45;;;;;;;33.30;14.57;;;4.70;99.90;;;;;;5066409;28;20130;-63
2022/11/22 02:35:22;;;;;;;30.50;15.48;;;4.70;99.90;;;;;;5057091;28;20400;-63
2022/11/22 02:37:56;;;;;;;32.03;13.75;;;4.70;99.90;;;;;;5046587;28;20041;-62
2022/11/22 02:40:23;;;;;;;31.58;14.65;;;4.70;99.90;;;;;;5116520;22;20506;-67
2022/11/22 02:42:54;;;;;;;30.23;14.20;;;4.70;99.90;;;;;;5056869;28;20043;-63
2022/11/22 02:45:20;;;;;;;29.48;14.50;;;4.70;99.90;;;;;;5045687;28;20448;-66
2022/11/22 02:52:56;;;;;;;35.03;14.98;;;4.70;99.90;;;;;;6073893;22;20127;-65
2022/11/22 02:57:57;;;;;;;32.10;14.98;;;4.80;99.90;;;;;;6045428;22;20048;-64
2022/11/22 03:03:19;;;;;;;25.60;13.50;;;4.80;99.90;;;;;;6237410;22;20057;-65
2022/11/22 03:05:45;;;;;;;30.52;14.23;;;4.80;99.90;;;;;;5079548;22;20060;-63
2022/11/22 03:08:10;;;;;;;32.00;14.75;;;4.80;99.90;;;;;;5062733;28;20037;-62
2022/11/22 03:10:36;;;;;;;28.83;13.18;;;4.90;99.90;;;;;;5058526;28;20478;-62
2022/11/22 03:13:02;;;;;;;28.30;14.10;;;4.80;99.90;;;;;;5073077;28;20044;-62
2022/11/22 03:15:27;;;;;;;29.90;13.90;;;4.80;99.90;;;;;;5073611;28;20090;-62
2022/11/22 03:18:01;;;;;;;31.35;15.15;;;4.80;99.90;;;;;;5055096;28;20402;-62
2022/11/22 03:20:27;;;;;;;33.00;13.98;;;4.80;99.90;;;;;;5066067;28;20470;-62
2022/11/22 03:22:53;;;;;;;29.30;14.30;;;4.90;99.90;;;;;;5072851;28;20036;-63
2022/11/22 03:25:18;;;;;;;33.40;14.57;;;4.90;99.90;;;;;;5063575;28;20032;-62
2022/11/22 03:27:44;;;;;;;28.63;14.40;;;4.90;99.90;;;;;;5065371;28;20470;-62
2022/11/22 03:30:10;;;;;;;29.20;13.93;;;5.00;99.90;;;;;;5073046;28;20068;-63
2022/11/22 03:32:35;;;;;;;30.60;14.57;;;5.00;99.90;;;;;;5068912;28;20063;-65
2022/11/22 03:35:01;;;;;;;29.88;14.05;;;5.00;99.90;;;;;;5063047;28;20407;-63
2022/11/22 03:37:26;;;;;;;28.75;14.40;;;5.00;99.90;;;;;;5072503;28;20042;-62
2022/11/22 03:39:52;;;;;;;31.92;13.75;;;5.10;99.90;;;;;;5071262;28;20045;-63
2022/11/22 03:42:18;;;;;;;26.70;13.40;;;5.10;99.90;;;;;;5062733;28;20041;-63
2022/11/22 03:44:43;;;;;;;28.83;13.77;;;5.10;99.90;;;;;;5072156;28;20067;-63
2022/11/22 03:47:09;;;;;;;28.75;13.63;;;5.10;99.90;;;;;;5072205;28;20097;-62
2022/11/22 03:49:34;;;;;;;34.15;15.05;;;5.10;99.90;;;;;;5070810;28;20047;-64
2022/11/22 03:52:00;;;;;;;26.80;13.85;;;5.10;99.90;;;;;;5060555;28;20044;-63
2022/11/22 03:54:25;;;;;;;26.80;12.95;;;5.20;99.90;;;;;;5060667;28;20483;-63
2022/11/22 03:56:51;;;;;;;27.25;13.43;;;5.20;99.90;;;;;;5072512;28;20121;-63
2022/11/22 03:59:16;;;;;;;24.30;12.68;;;5.20;99.90;;;;;;5063120;28;20434;-65
2022/11/22 04:01:42;;;;;;;29.50;14.07;;;5.20;99.90;;;;;;5071609;28;20037;-65
2022/11/22 04:04:07;;;;;;;27.13;14.13;;;5.20;99.90;;;;;;5072391;28;20087;-63
2022/11/22 04:06:33;;;;;;;25.98;13.10;;;5.20;99.90;;;;;;5072211;28;20505;-65
2022/11/22 04:08:58;;;;;;;26.45;14.30;;;5.30;99.90;;;;;;5046436;28;20045;-64
2022/11/22 04:11:24;;;;;;;31.17;14.35;;;5.30;99.90;;;;;;5064773;28;20124;-65
2022/11/22 04:16:33;;;;;;;30.58;13.98;;;5.30;99.90;;;;;;5053858;28;20144;-65
2022/11/22 04:18:59;;;;;;;28.48;13.85;;;5.30;99.90;;;;;;5066185;28;20131;-65
2022/11/22 04:21:34;;;;;;;25.85;14.45;;;5.30;99.90;;;;;;5071547;28;20044;-63
2022/11/22 04:26:49;;;;;;;27.98;14.02;;;5.40;99.90;;;;;;5064731;28;20048;-65
2022/11/22 04:29:16;;;;;;;26.38;13.23;;;5.40;99.90;;;;;;5071867;28;20040;-65
2022/11/22 04:34:26;;;;;;;35.38;13.82;;;5.40;99.90;;;;;;5068529;28;20047;-65
2022/11/22 04:36:51;;;;;;;26.27;13.18;;;5.40;99.90;;;;;;5071598;28;20037;-65
2022/11/22 04:39:17;;;;;;;29.77;13.23;;;5.40;99.90;;;;;;5072040;28;20036;-65
2022/11/22 04:41:43;;;;;;;26.40;13.63;;;5.50;99.90;;;;;;5060677;28;20041;-63
2022/11/22 04:46:53;;;;;;;26.33;13.00;;;5.50;99.90;;;;;;5051752;28;20043;-64
2022/11/22 04:49:19;;;;;;;28.67;13.65;;;5.60;99.90;;;;;;5046946;28;20044;-63
2022/11/22 04:54:28;;;;;;;24.55;13.73;;;5.60;99.90;;;;;;5071413;28;20094;-65
2022/11/22 04:56:54;;;;;;;27.42;12.52;;;5.70;99.90;;;;;;5071285;28;20048;-65
2022/11/22 04:59:19;;;;;;;27.13;13.48;;;5.70;99.90;;;;;;5055073;28;20045;-64
2022/11/22 05:01:45;;;;;;;30.42;13.82;;;5.80;99.90;;;;;;5067286;28;20090;-63
2022/11/22 05:04:10;;;;;;;24.67;12.23;;;5.80;99.90;;;;;;5071143;28;20120;-65
2022/11/22 05:06:36;;;;;;;28.40;13.15;;;5.90;99.90;;;;;;5067081;28;20036;-65
2022/11/22 05:09:02;;;;;;;24.67;11.75;;;5.90;99.90;;;;;;5061583;28;20048;-65
2022/11/22 05:11:28;;;;;;;26.13;11.43;;;6.00;99.90;;;;;;5063825;28;20043;-65
2022/11/22 05:13:53;;;;;;;26.35;12.02;;;6.00;99.90;;;;;;5071199;28;20036;-64
2022/11/22 05:16:19;;;;;;;28.90;11.52;;;6.10;99.90;;;;;;5069734;28;20085;-65
2022/11/22 05:18:57;;;;;;;21.83;11.60;;;6.10;99.90;;;;;;5061609;28;20079;-65
2022/11/22 05:21:25;;;;;;;23.15;11.48;;;6.10;99.90;;;;;;5062132;28;20044;-65
2022/11/22 05:23:54;;;;;;;20.58;11.80;;;6.10;99.90;;;;;;5061082;28;20478;-65
2022/11/22 05:26:31;;;;;;;27.30;11.45;;;6.10;99.90;;;;;;5070768;28;20036;-66
2022/11/22 05:28:57;;;;;;;27.17;11.25;;;6.10;99.90;;;;;;5071254;28;20037;-65
2022/11/22 05:31:26;;;;;;;26.35;11.95;;;6.20;99.90;;;;;;5060201;28;20044;-65
2022/11/22 05:33:52;;;;;;;24.27;10.90;;;6.20;99.90;;;;;;5071045;28;20127;-65
2022/11/22 05:36:19;;;;;;;24.63;11.55;;;6.20;99.90;;;;;;5069932;28;20509;-64
2022/11/22 05:38:45;;;;;;;29.98;11.95;;;6.20;99.90;;;;;;5057562;28;20033;-65
2022/11/22 05:41:12;;;;;;;23.38;11.15;;;6.20;99.90;;;;;;5066807;28;20047;-65
2022/11/22 05:43:38;;;;;;;23.42;11.48;;;6.20;99.90;;;;;;5070943;28;20037;-65
2022/11/22 05:46:09;;;;;;;22.90;11.35;;;6.20;99.90;;;;;;5071025;28;20036;-65
2022/11/22 05:48:36;;;;;;;;;;;6.20;99.90;;;;;;5061374;28;20040;-65
2022/11/22 05:51:06;;;;;;;33.38;11.05;;;6.20;99.90;;;;;;5057587;28;19916;-65
2022/11/22 05:53:33;;;;;;;24.17;10.20;;;6.20;99.90;;;;;;5070866;28;20040;-65
2022/11/22 05:56:12;;;;;;;29.45;10.68;;;6.20;99.90;;;;;;5060908;28;20116;-64
2022/11/22 05:58:38;;;;;;;29.65;9.68;;;6.20;99.90;;;;;;5070128;28;20090;-64
2022/11/22 06:01:11;;;;;;;21.45;9.95;;;6.10;99.90;;;;;;5064766;28;20044;-62
2022/11/22 06:03:37;;;;;;;21.20;9.90;;;6.00;99.90;;;;;;5064553;28;20478;-63
2022/11/22 06:06:04;;;;;;;22.45;9.75;;;6.00;99.90;;;;;;5062174;28;20033;-64
2022/11/22 06:08:31;;;;;;;20.20;9.25;;;5.90;99.90;;;;;;5065046;28;20041;-64
2022/11/22 06:11:22;;;;;;;22.02;9.45;;;5.90;99.90;;;;;;5072415;28;20086;-66
2022/11/22 06:13:50;;;;;;;18.77;9.70;;;5.80;99.90;;;;;;5056568;28;20046;-66
2022/11/22 06:16:16;;;;;;;26.08;10.18;;;5.70;99.90;;;;;;5073779;28;20486;-65
2022/11/22 06:18:42;;;;;;;26.77;9.63;;;5.60;99.90;;;;;;5074461;28;20531;-66
2022/11/22 06:21:22;;;;;;;22.15;9.55;;;5.60;99.90;;;;;;5061100;28;20116;-66
2022/11/22 06:23:47;;;;;;;25.48;9.90;;;5.40;99.90;;;;;;5066862;28;20029;-64
2022/11/22 06:26:16;;;;;;;23.30;9.82;;;5.30;99.90;;;;;;5074327;28;20043;-66
2022/11/22 06:28:42;;;;;;;22.70;10.07;;;5.30;99.90;;;;;;5059656;28;20037;-64
2022/11/22 06:31:16;;;;;;;23.13;9.02;;;5.30;99.90;;;;;;5069048;28;20044;-65
2022/11/22 06:33:42;;;;;;;25.85;8.82;;;5.20;99.90;;;;;;5065943;28;20043;-65
2022/11/22 06:36:10;;;;;;;22.40;10.00;;;5.10;99.90;;;;;;5072807;28;20435;-67
2022/11/22 06:38:37;;;;;;;20.83;8.63;;;5.00;99.90;;;;;;5057754;28;20367;-67
2022/11/22 06:41:06;;;;;;;18.80;8.70;;;4.90;99.90;;;;;;5069402;28;20075;-67
2022/11/22 06:43:33;;;;;;;20.58;9.10;;;4.80;99.90;;;;;;5073934;28;20040;-66
2022/11/22 06:46:00;;;;;;;25.92;8.90;;;4.80;99.90;;;;;;5057167;28;20090;-67
2022/11/22 06:48:28;;;;;;;17.77;8.27;;;4.80;99.90;;;;;;5063868;28;20044;-67
2022/11/22 06:51:14;;;;;;;20.00;8.57;;;4.80;99.90;;;;;;5065737;28;20072;-67
2022/11/22 06:53:40;;;;;;;24.33;8.88;;;4.90;99.90;;;;;;5073666;28;20387;-67
2022/11/22 06:56:12;;;;;;;31.02;8.82;;;4.90;99.90;;;;;;5060266;28;20486;-68
2022/11/22 06:58:38;;;;;;;20.10;8.70;;;5.00;99.90;;;;;;5073182;28;20029;-67
2022/11/22 07:01:08;;;;;;;27.08;9.00;;;5.00;99.90;;;;;;5071388;28;20036;-68
2022/11/22 07:03:35;;;;;;;23.25;9.10;;;5.00;99.90;;;;;;5057699;28;20049;-67
2022/11/22 07:06:01;;;;;;;20.25;7.93;;;5.10;99.90;;;;;;5056753;28;20040;-65
2022/11/22 07:08:27;;;;;;;23.15;8.15;;;5.10;99.90;;;;;;5072942;28;20082;-66
2022/11/22 07:10:52;;;;;;;18.13;7.35;;;5.10;99.90;;;;;;5073012;28;20036;-65
2022/11/22 07:13:19;;;;;;;22.70;7.70;;;5.10;99.90;;;;;;5069474;28;20056;-66
2022/11/22 07:15:56;;;;;;;24.58;7.28;;;5.10;99.90;;;;;;5064667;28;20059;-66
2022/11/22 07:18:22;;;;;;;24.73;7.35;;;5.10;99.90;;;;;;5065246;28;20116;-66
2022/11/22 07:20:48;;;;;;;20.65;8.57;;;5.10;99.90;;;;;;5070374;28;20033;-66
2022/11/22 07:23:14;;;;;;;22.25;6.90;;;5.10;99.90;;;;;;5070894;28;20044;-66
2022/11/22 07:25:44;;;;;;;22.40;7.10;;;5.10;99.90;;;;;;5053674;28;20084;-66
2022/11/22 07:28:09;;;;;;;15.05;5.65;;;5.10;99.90;;;;;;5060479;28;20048;-65
2022/11/22 07:30:35;;;;;;;18.85;6.15;;;5.10;99.90;;;;;;5072038;28;20048;-66
2022/11/22 07:33:00;;;;;;;23.55;5.95;;;5.10;99.90;;;;;;5072584;28;20132;-65
2022/11/22 07:35:27;;;;;;;26.00;5.68;;;5.10;99.90;;;;;;5061786;28;20045;-66
2022/11/22 07:37:52;;;;;;;20.80;5.57;;;5.00;99.90;;;;;;5051388;28;20040;-65
2022/11/22 07:40:18;;;;;;;18.42;4.65;;;5.00;99.90;;;;;;5072576;28;20043;-65
2022/11/22 07:42:43;;;;;;;15.43;4.90;;;5.00;99.90;;;;;;5036275;28;20040;-65
2022/11/22 07:45:09;;;;;;;21.10;4.70;;;5.00;99.90;;;;;;5054360;28;20106;-65
2022/11/22 07:47:35;;;;;;;19.10;4.85;;;5.00;99.90;;;;;;5036160;28;20445;-64
2022/11/22 07:50:00;;;;;;;18.27;4.50;;;4.90;99.90;;;;;;5050191;28;20123;-64
2022/11/22 07:52:26;;;;;;;22.98;4.50;;;4.90;99.90;;;;;;5052563;28;20041;-64
2022/11/22 07:54:51;;;;;;;15.13;4.35;;;4.90;99.90;;;;;;5032816;28;20062;-64
2022/11/22 07:57:17;;;;;;;14.75;4.70;;;4.90;99.90;;;;;;5069894;28;20383;-64
2022/11/22 07:59:42;;;;;;;15.35;4.47;;;4.90;99.90;;;;;;5072277;28;20512;-64
2022/11/22 08:02:10;;;;;;;11.82;4.45;;;4.90;99.90;;;;;;5054183;28;20455;-63
2022/11/22 08:04:36;;;;;;;13.50;3.90;;;5.00;99.90;;;;;;5063490;28;20519;-63
2022/11/22 08:07:02;;;;;;;15.35;4.15;;;5.00;99.90;;;;;;5071319;28;20179;-63
2022/11/22 08:09:27;;;;;;;20.35;4.30;;;5.00;99.90;;;;;;5061623;28;20068;-65
2022/11/22 08:11:53;;;;;;;24.27;4.60;;;5.10;99.90;;;;;;5071203;28;20529;-64
2022/11/22 08:14:18;;;;;;;12.95;4.35;;;5.10;99.90;;;;;;5072365;28;20036;-64
2022/11/22 08:16:44;;;;;;;19.48;4.15;;;5.10;99.90;;;;;;5067783;28;20068;-64
2022/11/22 08:19:14;;;;;;;14.68;3.95;;;5.20;99.90;;;;;;5070841;28;20040;-67
2022/11/22 08:21:40;;;;;;;20.75;4.22;;;5.20;99.90;;;;;;5071874;28;20040;-66
2022/11/22 08:24:06;;;;;;;20.92;4.03;;;5.20;99.90;;;;;;5071621;28;20043;-68
2022/11/22 08:26:33;;;;;;;16.13;3.70;;;5.30;99.90;;;;;;5064093;28;20040;-66
2022/11/22 08:28:59;;;;;;;15.50;3.85;;;5.30;99.90;;;;;;5071753;28;20181;-66
2022/11/22 08:31:26;;;;;;;11.65;3.97;;;5.40;99.90;;;;;;5071255;28;20131;-66
2022/11/22 08:33:52;;;;;;;14.07;3.65;;;5.40;99.90;;;;;;5062814;28;20036;-65
2022/11/22 08:36:18;;;;;;;12.43;3.60;;;5.40;99.90;;;;;;5067673;28;20037;-66
2022/11/22 08:38:44;;;;;;;13.88;3.50;;;5.50;99.90;;;;;;5071753;28;20423;-66
2022/11/22 08:41:10;;;;;;;13.30;3.78;;;5.50;99.90;;;;;;5067259;28;20132;-64
2022/11/22 08:43:36;;;;;;;15.73;3.92;;;5.60;99.90;;;;;;5068225;28;20040;-65
2022/11/22 08:46:02;;;;;;;16.58;5.03;;;5.60;99.90;;;;;;5070347;28;20036;-65
2022/11/22 08:48:30;;;;;;;13.98;3.50;;;5.60;99.90;;;;;;5071257;28;20399;-65
2022/11/22 08:51:01;;;;;;;16.30;3.95;;;5.70;99.90;;;;;;5064166;28;20091;-65
2022/11/22 08:53:27;;;;;;;15.77;3.85;;;5.70;99.90;;;;;;5056076;28;20041;-65
2022/11/22 08:55:53;;;;;;;12.80;4.00;;;5.80;99.90;;;;;;5053327;28;20383;-65
2022/11/22 08:58:19;;;;;;;18.13;4.03;;;5.80;99.90;;;;;;5064368;28;20464;-65
2022/11/22 09:00:44;;;;;;;15.40;4.30;;;5.80;99.90;;;;;;5062764;28;20534;-65
2022/11/22 09:03:10;;;;;;;16.70;4.03;;;5.90;99.90;;;;;;5071185;28;20123;-66
2022/11/22 09:05:36;;;;;;;18.63;4.95;;;5.90;99.90;;;;;;5075058;22;20047;-66
2022/11/22 09:08:02;;;;;;;16.50;4.30;;;5.90;99.90;;;;;;5059542;28;20041;-67
2022/11/22 09:10:27;;;;;;;16.73;4.90;;;6.00;99.90;;;;;;5061566;28;20075;-66
2022/11/22 09:12:53;;;;;;;11.98;4.07;;;6.00;99.90;;;;;;5069029;28;20064;-67
2022/11/22 09:15:19;;;;;;;12.02;4.40;;;6.10;99.90;;;;;;5034247;28;20036;-67
2022/11/22 09:17:44;;;;;;;12.35;4.22;;;6.20;99.90;;;;;;5061750;28;20032;-68
2022/11/22 09:20:10;;;;;;;13.02;4.32;;;6.30;99.90;;;;;;5044599;28;20028;-66
2022/11/22 09:22:37;;;;;;;15.82;4.13;;;6.40;99.90;;;;;;5071134;28;20094;-66
2022/11/22 09:25:04;;;;;;;13.68;4.13;;;6.40;99.90;;;;;;5060580;28;20041;-66
2022/11/22 09:27:31;;;;;;;12.50;3.97;;;6.50;99.90;;;;;;5069478;28;20090;-65
2022/11/22 09:29:56;;;;;;;12.82;3.97;;;6.50;99.90;;;;;;5039155;28;20049;-66
2022/11/22 09:32:22;;;;;;;15.05;3.97;;;6.50;99.90;;;;;;5048999;28;20041;-68
2022/11/22 09:34:47;;;;;;;14.25;3.65;;;6.50;99.90;;;;;;5065711;28;20028;-68
2022/11/22 09:37:17;;;;;;;15.52;3.85;;;6.50;99.90;;;;;;5051184;28;20041;-67
2022/11/22 09:39:45;;;;;;;16.40;4.28;;;6.60;99.90;;;;;;5050707;28;20040;-67
2022/11/22 09:42:14;;;;;;;12.20;3.53;;;6.70;99.90;;;;;;5064258;28;20040;-66
2022/11/22 09:45:00;;;;;;;9.48;3.53;;;6.80;99.90;;;;;;5059130;28;20041;-66
2022/11/22 09:47:49;;;;;;;10.85;3.53;;;6.90;99.90;;;;;;5052944;28;20520;-66
2022/11/22 09:50:38;;;;;;;14.93;3.95;;;7.00;99.90;;;;;;5067163;28;20033;-67
2022/11/22 09:53:12;;;;;;;11.13;3.55;;;7.10;99.90;;;;;;5041178;28;20095;-66
2022/11/22 09:55:46;;;;;;;14.90;4.22;;;7.10;99.90;;;;;;5054960;28;20072;-66
2022/11/22 09:58:25;;;;;;;13.57;3.58;;;7.20;99.90;;;;;;5053608;28;20044;-66
2022/11/22 10:00:55;;;;;;;11.10;3.05;;;7.20;99.90;;;;;;5062478;28;20103;-65
2022/11/22 10:03:36;;;;;;;12.05;3.53;;;7.20;99.90;;;;;;5054612;28;20048;-67
2022/11/22 10:06:07;;;;;;;9.15;3.13;;;7.30;99.90;;;;;;5061651;28;20056;-67
2022/11/22 10:09:04;;;;;;;15.68;3.22;;;7.40;99.90;;;;;;5071577;28;20162;-68
2022/11/22 10:11:53;;;;;;;11.52;2.72;;;7.50;99.90;;;;;;5030242;28;20053;-66
2022/11/22 10:14:26;;;;;;;11.48;3.03;;;7.50;99.90;;;;;;5054722;28;20061;-68
2022/11/22 10:17:29;;;;;;;11.27;3.58;;;7.60;99.90;;;;;;5064975;28;20454;-67
2022/11/22 10:19:57;;;;;;;8.95;3.25;;;7.60;99.90;;;;;;5067927;28;20055;-68
2022/11/22 10:22:27;;;;;;;11.57;2.90;;;7.60;99.90;;;;;;5061898;28;20039;-67
2022/11/22 10:24:52;;;;;;;14.05;3.10;;;7.70;99.90;;;;;;5068017;28;20418;-68
2022/11/22 10:27:18;;;;;;;10.02;2.80;;;7.70;99.90;;;;;;5052961;28;20510;-66
2022/11/22 10:29:46;;;;;;;13.63;2.83;;;7.80;99.90;;;;;;5073910;28;20124;-68
2022/11/22 10:32:31;;;;;;;11.65;2.85;;;7.80;99.90;;;;;;5062487;28;20036;-67
2022/11/22 10:35:26;;;;;;;8.82;2.70;;;7.90;99.90;;;;;;5062303;28;20167;-66
2022/11/22 10:38:28;;;;;;;10.88;3.20;;;7.90;99.90;;;;;;5034493;28;20045;-65
2022/11/22 10:41:10;;;;;;;11.77;3.08;;;7.90;99.90;;;;;;5062156;28;20041;-65
2022/11/22 10:44:26;;;;;;;11.40;3.05;;;8.00;99.90;;;;;;5036334;28;20041;-65
2022/11/22 10:47:04;;;;;;;6.50;2.53;;;8.00;99.90;;;;;;5012954;28;20188;-65
2022/11/22 10:49:59;;;;;;;17.63;2.92;;;7.90;99.90;;;;;;5039607;28;20526;-65
2022/11/22 10:52:48;;;;;;;7.90;2.53;;;7.90;99.90;;;;;;5055668;28;20052;-65
2022/11/22 10:55:26;;;;;;;9.60;2.55;;;7.80;99.90;;;;;;5036215;28;20044;-69
2022/11/22 10:58:07;;;;;;;8.82;2.33;;;7.80;99.90;;;;;;5059133;28;20046;-65
2022/11/22 11:00:38;;;;;;;9.52;2.50;;;7.80;99.90;;;;;;5065333;28;20044;-67
2022/11/22 11:03:19;;;;;;;8.20;2.88;;;7.80;99.90;;;;;;5048112;28;20059;-66
2022/11/22 11:05:48;;;;;;;;;;;7.90;99.90;;;;;;5058046;28;20090;-66
2022/11/22 11:08:27;;;;;;;5.53;2.25;;;8.00;99.90;;;;;;5057202;28;20432;-66
2022/11/22 11:10:52;;;;;;;12.52;2.70;;;8.10;99.90;;;;;;5051497;28;20116;-68
2022/11/22 11:13:25;;;;;;;10.70;2.83;;;8.20;99.90;;;;;;5061921;28;20461;-65
2022/11/22 11:15:55;;;;;;;6.45;2.53;;;8.30;99.90;;;;;;5064814;28;20042;-67
2022/11/22 11:18:35;;;;;;;9.25;2.70;;;8.30;99.90;;;;;;5072941;28;20797;-65
2022/11/22 11:21:00;;;;;;;6.93;2.28;;;8.30;99.90;;;;;;5061185;28;20095;-65
2022/11/22 11:23:26;;;;;;;6.38;2.47;;;8.30;99.90;;;;;;5064468;28;20036;-65
2022/11/22 11:25:51;;;;;;;8.50;2.70;;;8.40;99.90;;;;;;5066342;28;20106;-67
2022/11/22 11:28:26;;;;;;;7.88;2.65;;;8.40;99.90;;;;;;5069228;28;20063;-65
2022/11/22 11:30:54;;;;;;;8.27;2.80;;;8.50;99.90;;;;;;5068358;28;20517;-65
2022/11/22 11:33:28;;;;;;;8.95;3.00;;;8.50;99.90;;;;;;5064521;28;20046;-65
2022/11/22 11:36:03;;;;;;;8.30;2.50;;;8.50;99.90;;;;;;5072960;28;20040;-65
2022/11/22 11:38:51;;;;;;;10.38;2.25;;;8.50;99.90;;;;;;5059237;28;20076;-65
2022/11/22 11:41:30;;;;;;;8.27;2.05;;;8.50;99.90;;;;;;5068867;28;20079;-65
2022/11/22 11:44:01;;;;;;;5.72;2.38;;;8.50;99.90;;;;;;5073204;28;20064;-65
2022/11/22 11:46:28;;;;;;;7.25;2.30;;;8.60;99.90;;;;;;5055405;28;20044;-65
2022/11/22 11:49:13;;;;;;;9.95;2.00;;;8.60;99.90;;;;;;5060716;28;20064;-66
2022/11/22 11:51:40;;;;;;;8.60;2.33;;;8.60;99.90;;;;;;5065360;28;20501;-66
2022/11/22 11:54:21;;;;;;;8.45;2.33;;;8.60;99.90;;;;;;5067181;28;20645;-68
2022/11/22 11:56:54;;;;;;;11.05;4.45;;;8.60;99.90;;;;;;5064639;28;20064;-67
2022/11/22 11:59:21;;;;;;;9.13;2.30;;;8.50;99.90;;;;;;5072515;28;20086;-68
2022/11/22 12:01:52;;;;;;;10.35;2.13;;;8.50;99.90;;;;;;5062276;28;20048;-68
2022/11/22 12:04:25;;;;;;;7.30;2.10;;;8.50;99.90;;;;;;5070430;28;20425;-65
2022/11/22 12:07:01;;;;;;;7.65;2.08;;;8.50;99.90;;;;;;5040525;28;20490;-66
2022/11/22 12:09:43;;;;;;;6.50;2.45;;;8.60;99.90;;;;;;5033099;28;20059;-65
2022/11/22 12:12:14;;;;;;;5.22;2.00;;;8.60;99.90;;;;;;5057131;28;20032;-65
2022/11/22 12:14:45;;;;;;;7.07;2.50;;;8.70;99.90;;;;;;5062565;28;20044;-65
2022/11/22 12:17:22;;;;;;;7.07;2.17;;;8.80;99.90;;;;;;5071582;28;20076;-66
2022/11/22 12:20:02;;;;;;;11.48;2.50;;;8.80;99.90;;;;;;5059551;28;20032;-68
2022/11/22 12:22:39;;;;;;;9.75;2.00;;;8.80;99.90;;;;;;5047323;28;20483;-68
2022/11/22 12:25:38;;;;;;;7.50;2.50;;;8.90;99.90;;;;;;5039678;28;20132;-68
2022/11/22 12:28:26;;;;;;;13.40;2.70;;;8.90;99.90;;;;;;5005344;28;20513;-68
2022/11/22 12:31:02;;;;;;;5.72;2.20;;;8.90;99.90;;;;;;5062625;28;20375;-68
2022/11/22 12:33:36;;;;;;;7.60;2.80;;;8.90;99.90;;;;;;5068945;28;20044;-68
2022/11/22 12:36:20;;;;;;;6.22;2.40;;;8.90;99.90;;;;;;5060676;28;20521;-68
2022/11/22 12:38:48;;;;;;;8.70;2.55;;;8.80;99.90;;;;;;5057134;28;20037;-67
2022/11/22 12:41:16;;;;;;;7.95;2.50;;;8.80;99.90;;;;;;5047940;28;20510;-65
2022/11/22 12:43:52;;;;;;;9.52;3.00;;;8.70;99.90;;;;;;5049621;28;20040;-68
2022/11/22 12:46:32;;;;;;;5.80;2.50;;;8.70;99.90;;;;;;5053066;28;20033;-67
2022/11/22 12:49:04;;;;;;;5.38;2.17;;;8.70;99.90;;;;;;5059388;28;20045;-66
2022/11/22 12:51:56;;;;;;;10.75;2.75;;;8.60;99.90;;;;;;5031827;28;20517;-66
2022/11/22 12:54:29;;;;;;;7.93;2.67;;;8.50;99.90;;;;;;5066617;28;20055;-66
2022/11/22 12:57:04;;;;;;;4.85;2.10;;;8.50;99.90;;;;;;5070807;28;20498;-66
2022/11/22 12:59:45;;;;;;;9.40;2.25;;;8.40;99.90;;;;;;5070957;28;20055;-66
2022/11/22 13:02:33;;;;;;;6.72;1.90;;;8.40;99.90;;;;;;5060287;28;20037;-66
2022/11/22 13:05:07;;;;;;;3.53;1.90;;;8.30;99.90;;;;;;5063287;28;20063;-66
2022/11/22 13:07:38;;;;;;;5.72;2.00;;;8.30;99.90;;;;;;5035167;28;1030164;-66
2022/11/22 13:10:19;;;;;;;6.38;2.00;;;8.30;99.90;;;;;;5059935;28;20109;-66
2022/11/22 13:12:46;;;;;;;5.75;1.90;;;8.30;99.90;;;;;;5050516;28;20044;-68
2022/11/22 13:15:15;;;;;;;9.43;2.10;;;8.30;99.90;;;;;;5051519;28;20041;-66
2022/11/22 13:17:41;;;;;;;4.28;1.83;;;8.30;99.90;;;;;;5060279;28;20025;-68
2022/11/22 13:20:20;;;;;;;4.85;2.22;;;8.30;99.90;;;;;;5072030;28;20098;-68
2022/11/22 13:23:05;;;;;;;5.72;1.92;;;8.30;99.90;;;;;;5055333;28;20025;-68
2022/11/22 13:25:55;;;;;;;6.60;2.03;;;8.30;99.90;;;;;;5057733;28;20437;-66